Time;durP1;ratioP1;P1;durP2;ratioP2;P2;SDS_P1;SDS_P2;PMS_P1;PMS_P2;Temp;Humidity;BMP_temperature;BMP_pressure;BME280_temperature;BME280_humidity;BME280_pressure;Samples;Min_cycle;Max_cycle;Signal;HPM_P1;HPM_P2
2022/08/25 00:01:51;;;;;;;;;;;21.60;99.90;;;;;;4989118;28;20372;-71
2022/08/25 00:04:18;;;;;;;;;;;21.60;99.90;;;;;;4986025;28;19925;-71
2022/08/25 00:06:46;;;;;;;;;;;21.50;99.90;;;;;;4985033;28;20008;-72
2022/08/25 00:09:16;;;;;;;;;;;21.50;99.90;;;;;;4987623;28;20524;-71
2022/08/25 00:11:43;;;;;;;;;;;21.50;99.90;;;;;;5063933;28;19924;-71
2022/08/25 00:14:11;;;;;;;;;;;21.50;99.90;;;;;;4991521;28;19926;-71
2022/08/25 00:16:38;;;;;;;;;;;21.50;99.90;;;;;;4996746;28;20017;-72
2022/08/25 00:19:05;;;;;;;;;;;21.50;99.90;;;;;;4989122;28;20371;-71
2022/08/25 00:21:32;;;;;;;;;;;21.50;99.90;;;;;;4990771;28;19933;-71
2022/08/25 00:24:01;;;;;;;;;;;21.40;99.90;;;;;;4989318;28;20455;-72
2022/08/25 00:26:29;;;;;;;;;;;21.40;99.90;;;;;;4987423;28;20021;-71
2022/08/25 00:28:55;;;;;;;;;;;21.40;99.90;;;;;;4988076;28;19937;-72
2022/08/25 00:31:23;;;;;;;;;;;21.30;99.90;;;;;;4990828;28;19926;-72
2022/08/25 00:33:50;;;;;;;;;;;21.20;99.90;;;;;;4982884;28;19962;-71
2022/08/25 00:36:18;;;;;;;;;;;21.20;99.90;;;;;;4986611;28;19933;-71
2022/08/25 00:38:46;;;;;;;;;;;21.10;99.90;;;;;;4986230;28;20338;-70
2022/08/25 00:41:15;;;;;;;;;;;21.10;99.90;;;;;;4985442;28;20016;-70
2022/08/25 00:43:47;;;;;;;;;;;20.90;99.90;;;;;;5031639;28;20025;-70
2022/08/25 00:46:16;;;;;;;;;;;20.80;99.90;;;;;;4986439;28;19948;-69
2022/08/25 00:48:43;;;;;;;;;;;20.70;99.90;;;;;;4978996;28;19948;-70
2022/08/25 00:51:13;;;;;;;;;;;20.60;99.90;;;;;;4986378;28;20293;-70
2022/08/25 00:53:40;;;;;;;;;;;20.60;99.90;;;;;;4977025;28;20296;-71
2022/08/25 00:56:07;;;;;;;;;;;20.50;99.90;;;;;;4973040;28;19945;-70
2022/08/25 00:58:34;;;;;;;;;;;20.50;99.90;;;;;;4986511;28;19925;-70
2022/08/25 01:01:02;;;;;;;;;;;20.40;99.90;;;;;;4983630;28;19941;-70
2022/08/25 01:03:29;;;;;;;;;;;;;;;;;;4986015;28;20048;-70
2022/08/25 01:05:57;;;;;;;;;;;;;;;;;;4991151;28;19926;-72
2022/08/25 01:08:26;;;;;;;;;;;;;;;;;;4991075;28;20020;-70
2022/08/25 01:10:53;;;;;;;;;;;;;;;;;;4982468;28;19931;-70
2022/08/25 01:13:22;;;;;;;;;;;20.50;99.90;;;;;;4981797;28;20020;-69
2022/08/25 01:15:50;;;;;;;;;;;20.60;99.90;;;;;;4992856;28;19926;-70
2022/08/25 01:18:18;;;;;;;;;;;20.60;99.90;;;;;;4988364;28;21754;-69
2022/08/25 01:20:49;;;;;;;;;;;20.60;99.90;;;;;;4983884;28;19932;-69
2022/08/25 01:23:16;;;;;;;;;;;;;;;;;;4995360;28;19932;-69
2022/08/25 01:25:45;;;;;;;;;;;20.50;99.90;;;;;;5006355;28;20016;-69
2022/08/25 01:28:12;;;;;;;;;;;20.50;99.90;;;;;;4988065;28;20444;-69
2022/08/25 01:30:39;;;;;;;;;;;20.50;99.90;;;;;;4986210;28;19926;-69
2022/08/25 01:33:06;;;;;;;;;;;20.50;99.90;;;;;;4989386;28;20029;-69
2022/08/25 01:35:33;;;;;;;;;;;20.40;99.90;;;;;;5015720;28;19926;-69
2022/08/25 01:38:01;;;;;;;;;;;20.50;99.90;;;;;;4987607;28;19937;-69
2022/08/25 01:40:28;;;;;;;;;;;20.40;99.90;;;;;;4984569;28;19933;-70
2022/08/25 01:43:02;;;;;;;;;;;20.50;99.90;;;;;;4989396;28;20005;-68
2022/08/25 01:45:28;;;;;;;;;;;20.40;99.90;;;;;;5001430;28;19979;-68
2022/08/25 01:47:55;;;;;;;;;;;20.40;99.90;;;;;;4988612;28;20268;-69
2022/08/25 01:50:22;;;;;;;;;;;20.40;99.90;;;;;;4986326;28;20407;-69
2022/08/25 01:52:51;;;;;;;;;;;20.30;99.90;;;;;;4981922;28;20020;-69
2022/08/25 01:55:19;;;;;;;;;;;20.30;99.90;;;;;;4995279;28;19937;-69
2022/08/25 01:57:46;;;;;;;;;;;;;;;;;;5019628;28;19926;-69
2022/08/25 02:00:14;;;;;;;;;;;20.20;99.90;;;;;;4987446;28;19940;-69
2022/08/25 02:02:41;;;;;;;;;;;;;;;;;;4994203;28;19929;-69
2022/08/25 02:05:08;;;;;;;;;;;20.10;99.90;;;;;;4981065;28;19994;-69
2022/08/25 02:07:35;;;;;;;;;;;20.10;99.90;;;;;;4987055;28;19926;-68
2022/08/25 02:10:03;;;;;;;;;;;20.10;99.90;;;;;;4983951;28;19933;-69
2022/08/25 02:12:31;;;;;;;;;;;20.00;99.90;;;;;;5054365;28;20308;-69
2022/08/25 02:14:58;;;;;;;;;;;19.90;99.90;;;;;;4986061;28;19926;-69
2022/08/25 02:17:24;;;;;;;;;;;19.90;99.90;;;;;;4982852;28;19926;-69
2022/08/25 02:19:51;;;;;;;;;;;19.90;99.90;;;;;;4985623;28;19972;-68
2022/08/25 02:22:18;;;;;;;;;;;19.80;99.90;;;;;;4987311;28;19925;-69
2022/08/25 02:24:45;;;;;;;;;;;;;;;;;;5033129;28;19931;-69
2022/08/25 02:27:12;;;;;;;;;;;;;;;;;;4988262;28;20016;-69
2022/08/25 02:29:39;;;;;;;;;;;;;;;;;;4985193;28;19930;-69
2022/08/25 02:32:06;;;;;;;;;;;;;;;;;;4995548;28;20318;-69
2022/08/25 02:34:33;;;;;;;;;;;;;;;;;;4983403;28;20016;-69
2022/08/25 02:37:00;;;;;;;;;;;;;;;;;;4977836;28;19934;-69
2022/08/25 02:39:27;;;;;;;;;;;;;;;;;;4986330;28;19933;-69
2022/08/25 02:41:54;;;;;;;;;;;;;;;;;;4990220;28;20355;-69
2022/08/25 02:44:21;;;;;;;;;;;;;;;;;;4986453;28;19936;-69
2022/08/25 02:46:48;;;;;;;;;;;;;;;;;;4996925;28;20016;-69
2022/08/25 02:49:15;;;;;;;;;;;;;;;;;;4990656;28;20021;-69
2022/08/25 02:51:42;;;;;;;;;;;;;;;;;;4987380;28;19942;-68
2022/08/25 02:54:09;;;;;;;;;;;;;;;;;;4985462;28;19952;-68
2022/08/25 02:56:36;;;;;;;;;;;;;;;;;;4987891;28;19996;-70
2022/08/25 02:59:03;;;;;;;;;;;;;;;;;;4980437;28;21631;-70
2022/08/25 03:01:31;;;;;;;;;;;;;;;;;;4986094;28;19926;-69
2022/08/25 03:03:58;;;;;;;;;;;;;;;;;;5017646;28;19934;-70
2022/08/25 03:06:26;;;;;;;;;;;;;;;;;;4991904;28;19926;-69
2022/08/25 03:08:53;;;;;;;;;;;;;;;;;;4986207;28;20004;-68
2022/08/25 03:11:20;;;;;;;;;;;;;;;;;;4984959;28;20013;-68
2022/08/25 03:13:49;;;;;;;;;;;;;;;;;;5038050;28;19924;-69
2022/08/25 03:16:16;;;;;;;;;;;;;;;;;;4989083;28;19926;-69
2022/08/25 03:18:43;;;;;;;;;;;;;;;;;;5028014;28;19926;-69
2022/08/25 03:21:10;;;;;;;;;;;;;;;;;;4986555;28;19925;-69
2022/08/25 03:23:37;;;;;;;;;;;;;;;;;;4986734;28;20013;-69
2022/08/25 03:28:49;;;;;;;;;;;;;;;;;;5071221;28;19920;-69
2022/08/25 03:31:16;;;;;;;;;;;;;;;;;;5017293;28;19936;-69
2022/08/25 03:33:43;;;;;;;;;;;;;;;;;;4988027;28;19926;-69
2022/08/25 03:36:11;;;;;;;;;;;;;;;;;;4985551;28;20069;-70
2022/08/25 03:38:38;;;;;;;;;;;;;;;;;;4977745;28;19926;-70
2022/08/25 03:41:05;;;;;;;;;;;;;;;;;;4984986;28;19932;-69
2022/08/25 03:43:32;;;;;;;;;;;;;;;;;;4987230;28;19938;-68
2022/08/25 03:45:59;;;;;;;;;;;;;;;;;;5027832;28;19931;-68
2022/08/25 03:48:28;;;;;;;;;;;;;;;;;;4998887;28;19932;-69
2022/08/25 03:50:55;;;;;;;;;;;;;;;;;;4988328;28;20006;-68
2022/08/25 03:53:22;;;;;;;;;;;;;;;;;;4988713;28;19925;-68
2022/08/25 03:55:49;;;;;;;;;;;;;;;;;;4990482;28;19926;-68
2022/08/25 03:58:16;;;;;;;;;;;;;;;;;;4989931;28;19995;-68
2022/08/25 04:00:43;;;;;;;;;;;;;;;;;;4986015;28;19926;-68
2022/08/25 04:03:10;;;;;;;;;;;;;;;;;;4989822;28;19977;-68
2022/08/25 04:05:38;;;;;;;;;;;;;;;;;;4987240;28;20286;-68
2022/08/25 04:08:05;;;;;;;;;;;;;;;;;;5001336;28;20032;-69
2022/08/25 04:10:32;;;;;;;;;;;;;;;;;;4986384;28;19930;-68
2022/08/25 04:13:00;;;;;;;;;;;;;;;;;;4990324;28;19925;-68
2022/08/25 04:15:27;;;;;;;;;;;;;;;;;;4989494;28;19926;-68
2022/08/25 04:17:54;;;;;;;;;;;;;;;;;;5013946;28;20013;-68
2022/08/25 04:20:21;;;;;;;;;;;;;;;;;;4989369;28;20424;-68
2022/08/25 04:22:48;;;;;;;;;;;;;;;;;;4990186;28;19941;-68
2022/08/25 04:25:15;;;;;;;;;;;;;;;;;;4990396;28;20020;-68
2022/08/25 04:27:42;;;;;;;;;;;;;;;;;;4994093;28;19926;-67
2022/08/25 04:30:09;;;;;;;;;;;;;;;;;;4989314;28;20016;-68
2022/08/25 04:32:36;;;;;;;;;;;;;;;;;;4989429;28;20467;-71
2022/08/25 04:35:04;;;;;;;;;;;;;;;;;;4988290;28;20029;-63
2022/08/25 04:37:32;;;;;;;;;;;;;;;;;;4992575;28;19925;-70
2022/08/25 04:39:59;;;;;;;;;;;;;;;;;;4989109;28;20299;-70
2022/08/25 04:42:26;;;;;;;;;;;;;;;;;;4990380;28;19929;-72
2022/08/25 04:44:53;;;;;;;;;;;;;;;;;;4987750;28;20396;-71
2022/08/25 04:47:20;;;;;;;;;;;;;;;;;;4989268;28;19930;-71
2022/08/25 04:49:47;;;;;;;;;;;;;;;;;;4991384;28;19932;-67
2022/08/25 04:52:14;;;;;;;;;;;;;;;;;;4999135;28;20020;-69
2022/08/25 04:54:41;;;;;;;;;;;;;;;;;;5049732;28;20126;-69
2022/08/25 04:57:08;;;;;;;;;;;;;;;;;;5003466;28;19965;-69
2022/08/25 04:59:35;;;;;;;;;;;;;;;;;;4988232;28;19926;-69
2022/08/25 05:02:03;;;;;;;;;;;;;;;;;;4985147;28;20026;-69
2022/08/25 05:04:30;;;;;;;;;;;;;;;;;;4982177;28;19926;-70
2022/08/25 05:06:57;;;;;;;;;;;;;;;;;;4987394;28;19933;-70
2022/08/25 05:09:24;;;;;;;;;;;;;;;;;;5000224;28;19924;-70
2022/08/25 05:11:51;;;;;;;;;;;;;;;;;;5002340;28;19926;-70
2022/08/25 05:14:21;;;;;;;;;;;;;;;;;;5008043;28;19925;-71
2022/08/25 05:16:48;;;;;;;;;;;;;;;;;;4985843;28;19933;-70
2022/08/25 05:19:15;;;;;;;;;;;;;;;;;;4984223;28;19936;-71
2022/08/25 05:21:42;;;;;;;;;;;;;;;;;;4986701;28;19934;-70
2022/08/25 05:24:09;;;;;;;;;;;;;;;;;;5062114;28;20695;-71
2022/08/25 05:26:37;;;;;;;;;;;;;;;;;;4995080;28;19933;-71
2022/08/25 05:29:04;;;;;;;;;;;;;;;;;;4988461;28;19934;-70
2022/08/25 05:31:31;;;;;;;;;;;;;;;;;;4986700;28;19926;-70
2022/08/25 05:33:58;;;;;;;;;;;;;;;;;;4985093;28;20021;-70
2022/08/25 05:36:25;;;;;;;;;;;;;;;;;;4978736;28;19942;-70
2022/08/25 05:38:52;;;;;;;;;;;;;;;;;;4972834;28;20408;-70
2022/08/25 05:41:19;;;;;;;;;;;;;;;;;;5042076;28;19933;-70
2022/08/25 05:43:46;;;;;;;;;;;;;;;;;;4988932;28;20345;-72
2022/08/25 05:46:13;;;;;;;;;;;;;;;;;;5005065;28;19924;-71
2022/08/25 05:48:40;;;;;;;;;;;;;;;;;;4984569;28;19970;-70
2022/08/25 05:51:09;;;;;;;;;;;;;;;;;;4987172;28;19933;-70
2022/08/25 05:53:35;;;;;;;;;;;;;;;;;;4980757;28;19926;-70
2022/08/25 05:56:03;;;;;;;;;;;;;;;;;;4987891;28;19926;-71
2022/08/25 05:58:30;;;;;;;;;;;;;;;;;;4988576;28;19926;-70
2022/08/25 06:00:57;;;;;;;;;;;;;;;;;;4984854;28;19930;-70
2022/08/25 06:03:23;;;;;;;;;;;;;;;;;;4986796;28;20479;-69
2022/08/25 06:05:50;;;;;;;;;;;;;;;;;;4985643;28;20012;-71
2022/08/25 06:08:17;;;;;;;;;;;;;;;;;;4992992;28;20387;-70
2022/08/25 06:10:44;;;;;;;;;;;;;;;;;;5005326;28;20480;-71
2022/08/25 06:13:11;;;;;;;;;;;;;;;;;;5011608;28;19926;-70
2022/08/25 06:15:38;;;;;;;;;;;;;;;;;;4986025;28;19991;-70
2022/08/25 06:18:06;;;;;;;;;;;;;;;;;;5008385;28;20026;-70
2022/08/25 06:20:33;;;;;;;;;;;;;;;;;;4987137;28;20400;-70
2022/08/25 06:23:00;;;;;;;;;;;;;;;;;;4987535;28;20015;-70
2022/08/25 06:25:27;;;;;;;;;;;;;;;;;;4984010;28;20296;-70
2022/08/25 06:27:54;;;;;;;;;;;;;;;;;;5015447;28;19924;-70
2022/08/25 06:30:21;;;;;;;;;;;;;;;;;;5009553;28;20388;-71
2022/08/25 06:32:48;;;;;;;;;;;;;;;;;;4988770;28;20371;-72
2022/08/25 06:35:15;;;;;;;;;;;;;;;;;;4986216;28;19932;-72
2022/08/25 06:37:42;;;;;;;;;;;;;;;;;;4985834;28;19926;-72
2022/08/25 06:40:09;;;;;;;;;;;;;;;;;;4996584;28;20437;-72
2022/08/25 06:42:36;;;;;;;;;;;;;;;;;;5002663;28;20368;-72
2022/08/25 06:45:03;;;;;;;;;;;;;;;;;;4984367;28;19926;-71
2022/08/25 06:47:30;;;;;;;;;;;;;;;;;;4990903;28;20025;-71
2022/08/25 06:49:57;;;;;;;;;;;;;;;;;;4976284;28;19940;-71
2022/08/25 06:52:24;;;;;;;;;;;;;;;;;;4994722;28;19933;-72
2022/08/25 06:54:51;;;;;;;;;;;;;;;;;;4990179;28;19940;-72
2022/08/25 06:57:18;;;;;;;;;;;;;;;;;;4985213;28;20348;-72
2022/08/25 06:59:45;;;;;;;;;;;;;;;;;;4984960;28;20339;-72
2022/08/25 07:02:12;;;;;;;;;;;;;;;;;;4982614;28;19926;-71
2022/08/25 07:04:39;;;;;;;;;;;;;;;;;;4986190;28;19926;-72
2022/08/25 07:07:06;;;;;;;;;;;;;;;;;;4986806;28;20020;-73
2022/08/25 07:09:33;;;;;;;;;;;;;;;;;;4984159;28;19926;-72
2022/08/25 07:12:01;;;;;;;;;;;;;;;;;;4989673;28;20032;-70
2022/08/25 07:14:28;;;;;;;;;;;;;;;;;;4986575;28;19949;-72
2022/08/25 07:16:55;;;;;;;;;;;;;;;;;;4978580;28;20295;-72
2022/08/25 07:19:22;;;;;;;;;;;;;;;;;;4983741;28;20340;-73
2022/08/25 07:21:49;;;;;;;;;;;;;;;;;;4992173;28;19926;-72
2022/08/25 07:24:16;;;;;;;;;;;;;;;;;;4985976;28;20028;-72
2022/08/25 07:26:45;;;;;;;;;;;;;;;;;;4985335;28;20025;-72
2022/08/25 07:29:12;;;;;;;;;;;;;;;;;;5016742;28;19930;-72
2022/08/25 07:31:39;;;;;;;;;;;;;;;;;;4991570;28;20020;-73
2022/08/25 07:36:51;;;;;;;;;;;;;;;;;;4984573;28;20288;-72
2022/08/25 07:39:18;;;;;;;;;;;;;;;;;;4993012;28;19973;-72
2022/08/25 07:41:45;;;;;;;;;;;;;;;;;;4989628;28;19977;-72
2022/08/25 07:44:12;;;;;;;;;;;;;;;;;;4990834;28;19928;-72
2022/08/25 07:46:39;;;;;;;;;;;;;;;;;;4990482;28;19926;-71
2022/08/25 07:49:06;;;;;;;;;;;;;;;;;;4989868;28;19965;-72
2022/08/25 07:51:33;;;;;;;;;;;;;;;;;;4989108;28;19944;-71
2022/08/25 07:54:00;;;;;;;;;;;;;;;;;;4988321;28;19936;-71
2022/08/25 07:56:28;;;;;;;;;;;;;;;;;;4991287;28;19949;-73
2022/08/25 07:58:55;;;;;;;;;;;;;;;;;;4989157;28;19925;-71
2022/08/25 08:01:22;;;;;;;;;;;;;;;;;;4987742;28;19926;-71
2022/08/25 08:03:49;;;;;;;;;;;;;;;;;;4986934;28;20017;-72
2022/08/25 08:06:16;;;;;;;;;;;;;;;;;;4990853;28;20028;-71
2022/08/25 08:08:44;;;;;;;;;;;;;;;;;;4990761;28;19973;-72
2022/08/25 08:11:11;;;;;;;;;;;;;;;;;;4986341;28;19979;-72
2022/08/25 08:13:38;;;;;;;;;;;;;;;;;;4988248;28;19972;-73
2022/08/25 08:16:05;;;;;;;;;;;;;;;;;;4985376;28;20442;-72
2022/08/25 08:18:32;;;;;;;;;;;;;;;;;;4992337;28;19926;-71
2022/08/25 08:20:59;;;;;;;;;;;;;;;;;;4987649;28;20418;-71
2022/08/25 08:23:27;;;;;;;;;;;;;;;;;;4989661;28;19987;-71
2022/08/25 08:25:54;;;;;;;;;;;;;;;;;;4988009;28;19926;-71
2022/08/25 08:28:21;;;;;;;;;;;;;;;;;;4986526;28;19957;-72
2022/08/25 08:30:48;;;;;;;;;;;;;;;;;;4986254;28;20460;-71
2022/08/25 08:33:15;;;;;;;;;;;;;;;;;;4988036;28;19988;-72
2022/08/25 08:35:42;;;;;;;;;;;;;;;;;;4989000;28;19936;-71
2022/08/25 08:38:11;;;;;;;;;;;;;;;;;;4987457;28;20425;-72
2022/08/25 08:40:38;;;;;;;;;;;;;;;;;;4981317;28;20017;-75
2022/08/25 08:43:05;;;;;;;;;;;;;;;;;;4982671;28;19926;-72
2022/08/25 08:45:32;;;;;;;;;;;;;;;;;;4987014;28;20380;-71
2022/08/25 08:47:59;;;;;;;;;;;;;;;;;;4987287;28;20402;-72
2022/08/25 08:50:26;;;;;;;;;;;;;;;;;;4986239;28;19937;-72
2022/08/25 08:52:53;;;;;;;;;;;;;;;;;;4994319;28;19940;-71
2022/08/25 08:55:20;;;;;;;;;;;;;;;;;;5011562;28;19940;-72
2022/08/25 08:57:47;;;;;;;;;;;;;;;;;;4979855;28;20020;-73
2022/08/25 09:00:14;;;;;;;;;;;;;;;;;;5014057;28;19987;-73
2022/08/25 09:02:42;;;;;;;;;;;;;;;;;;5035791;28;19938;-70
2022/08/25 09:05:09;;;;;;;;;;;;;;;;;;4986445;28;19926;-71
2022/08/25 09:07:36;;;;;;;;;;;;;;;;;;4987565;28;20044;-75
2022/08/25 09:10:03;;;;;;;;;;;;;;;;;;5011007;28;19966;-73
2022/08/25 09:12:32;;;;;;;;;;;;;;;;;;4996257;28;19930;-73
2022/08/25 09:14:59;;;;;;;;;;;;;;;;;;5002918;28;20025;-72
2022/08/25 09:17:26;;;;;;;;;;;;;;;;;;5037713;28;19933;-71
2022/08/25 09:19:53;;;;;;;;;;;;;;;;;;5017700;28;20591;-73
2022/08/25 09:22:20;;;;;;;;;;;;;;;;;;5048147;28;19927;-72
2022/08/25 09:24:47;;;;;;;;;;;;;;;;;;4990457;28;19930;-73
2022/08/25 09:27:14;;;;;;;;;;;;;;;;;;5010537;28;19925;-72
2022/08/25 09:29:41;;;;;;;;;;;;;;;;;;4993275;28;19961;-72
2022/08/25 09:32:08;;;;;;;;;;;;;;;;;;5006371;28;20068;-73
2022/08/25 09:34:35;;;;;;;;;;;;;;;;;;4988575;28;19932;-69
2022/08/25 09:37:02;;;;;;;;;;;;;;;;;;4983828;28;19926;-69
2022/08/25 09:39:29;;;;;;;;;;;;;;;;;;4987563;28;19932;-69
2022/08/25 09:41:56;;;;;;;;;;;;;;;;;;4984850;28;20498;-69
2022/08/25 09:44:23;;;;;;;;;;;;;;;;;;5034387;28;20019;-70
2022/08/25 09:46:50;;;;;;;;;;;;;;;;;;4994390;28;20825;-69
2022/08/25 09:49:17;;;;;;;;;;;;;;;;;;4983898;28;20043;-68
2022/08/25 09:51:44;;;;;;;;;;;;;;;;;;5004160;23;19972;-69
2022/08/25 09:54:11;;;;;;;;;;;;;;;;;;4983972;28;19932;-71
2022/08/25 09:56:39;;;;;;;;;;;;;;;;;;4998956;28;19971;-68
2022/08/25 09:59:06;;;;;;;;;;;;;;;;;;4982944;28;20380;-69
2022/08/25 10:01:33;;;;;;;;;;;;;;;;;;4982232;28;19969;-68
2022/08/25 10:04:00;;;;;;;;;;;;;;;;;;4982507;28;19976;-69
2022/08/25 10:06:27;;;;;;;;;;;;;;;;;;4985005;28;19995;-69
2022/08/25 10:08:56;;;;;;;;;;;;;;;;;;4983730;28;19929;-69
2022/08/25 10:11:23;;;;;;;;;;;;;;;;;;4983422;28;19926;-69
2022/08/25 10:13:50;;;;;;;;;;;;;;;;;;4982233;28;20238;-66
2022/08/25 10:16:17;;;;;;;;;;;;;;;;;;4986124;28;19932;-69
2022/08/25 10:18:44;;;;;;;;;;;;;;;;;;4986611;28;19926;-68
2022/08/25 10:21:20;;;;;;;;;;;;;;;;;;4982827;28;20389;-69
2022/08/25 10:23:47;;;;;;;;;;;;;;;;;;4981736;28;19930;-68
2022/08/25 10:26:14;;;;;;;;;;;;;;;;;;4988563;28;20037;-68
2022/08/25 10:28:41;;;;;;;;;;;;;;;;;;4983751;28;19926;-68
2022/08/25 10:31:08;;;;;;;;;;;;;;;;;;4984717;28;20354;-68
2022/08/25 10:33:35;;;;;;;;;;;;;;;;;;4988837;28;20016;-67
2022/08/25 10:36:02;;;;;;;;;;;;;;;;;;4985844;28;20014;-72
2022/08/25 10:38:29;;;;;;;;;;;;;;;;;;4987025;28;19932;-73
2022/08/25 10:40:57;;;;;;;;;;;;;;;;;;4985505;28;19926;-72
2022/08/25 10:43:24;;;;;;;;;;;;;;;;;;4981191;28;19930;-72
2022/08/25 10:45:50;;;;;;;;;;;;;;;;;;4983338;28;20376;-72
2022/08/25 10:48:17;;;;;;;;;;;;;;;;;;4977078;28;19961;-73
2022/08/25 10:50:44;;;;;;;;;;;;;;;;;;4983746;28;19942;-73
2022/08/25 10:53:12;;;;;;;;;;;;;;;;;;4980598;28;20021;-72
2022/08/25 10:55:39;;;;;;;;;;;;;;;;;;4979949;28;19926;-73
2022/08/25 10:58:06;;;;;;;;;;;;;;;;;;4984953;28;19960;-73
2022/08/25 11:00:34;;;;;;;;;;;;;;;;;;4984490;28;20406;-73
2022/08/25 11:03:01;;;;;;;;;;;;;;;;;;4984145;28;19969;-73
2022/08/25 11:05:28;;;;;;;;;;;;;;;;;;4982816;28;19980;-72
2022/08/25 11:07:55;;;;;;;;;;;;;;;;;;5020826;28;19924;-72
2022/08/25 11:10:22;;;;;;;;;;;;;;;;;;4984897;28;19926;-77
2022/08/25 11:12:49;;;;;;;;;;;;;;;;;;4987871;28;20016;-75
2022/08/25 11:15:16;;;;;;;;;;;;;;;;;;4984925;28;19926;-75
2022/08/25 11:17:43;;;;;;;;;;;;;;;;;;4984923;28;20033;-73
2022/08/25 11:20:12;;;;;;;;;;;;;;;;;;4986166;28;19983;-75
2022/08/25 11:22:39;;;;;;;;;;;;;;;;;;4988656;28;19925;-75
2022/08/25 11:25:06;;;;;;;;;;;;;;;;;;4986247;28;19926;-74
2022/08/25 11:27:33;;;;;;;;;;;;;;;;;;4981457;28;19968;-73
2022/08/25 11:30:00;;;;;;;;;;;;;;;;;;4976813;28;19932;-74
2022/08/25 11:32:32;;;;;;;;;;;;;;;;;;4986273;28;20411;-73
2022/08/25 11:34:59;;;;;;;;;;;;;;;;;;4983452;28;19926;-74
2022/08/25 11:37:26;;;;;;;;;;;;;;;;;;4985693;28;20443;-74
2022/08/25 11:39:53;;;;;;;;;;;;;;;;;;4980735;28;19932;-74
2022/08/25 11:42:20;;;;;;;;;;;;;;;;;;4983898;28;20394;-75
2022/08/25 11:44:47;;;;;;;;;;;;;;;;;;4983960;28;19926;-74
2022/08/25 11:47:14;;;;;;;;;;;;;;;;;;4986615;28;19926;-75
2022/08/25 11:49:41;;;;;;;;;;;;;;;;;;4982977;28;19927;-75
2022/08/25 11:52:08;;;;;;;;;;;;;;;;;;4979457;28;19930;-75
2022/08/25 11:54:35;;;;;;;;;;;;;;;;;;4981817;28;19981;-74
2022/08/25 11:57:03;;;;;;;;;;;;;;;;;;4984280;28;19969;-73
2022/08/25 11:59:30;;;;;;;;;;;;;;;;;;4981537;28;19932;-74
2022/08/25 12:01:57;;;;;;;;;;;;;;;;;;4975905;28;19934;-74
2022/08/25 12:04:24;;;;;;;;;;;;;;;;;;4978598;28;20296;-73
2022/08/25 12:06:51;;;;;;;;;;;;;;;;;;4985718;28;20008;-74
2022/08/25 12:09:18;;;;;;;;;;;;;;;;;;4986827;28;19934;-73
2022/08/25 12:11:45;;;;;;;;;;;;;;;;;;4990010;28;19936;-74
2022/08/25 12:14:12;;;;;;;;;;;;;;;;;;4988758;28;19932;-73
2022/08/25 12:16:39;;;;;;;;;;;;;;;;;;4986591;28;19926;-73
2022/08/25 12:19:06;;;;;;;;;;;;;;;;;;4985620;28;19926;-74
2022/08/25 12:21:34;;;;;;;;;;;;;;;;;;4987328;28;20128;-75
2022/08/25 12:24:01;;;;;;;;;;;;;;;;;;4979283;28;20031;-75
2022/08/25 12:26:28;;;;;;;;;;;;;;;;;;4981473;28;20403;-74
2022/08/25 12:28:55;;;;;;;;;;;;;;;;;;5003262;28;19926;-74
2022/08/25 12:31:22;;;;;;;;;;;;;;;;;;4988053;28;20387;-75
2022/08/25 12:33:49;;;;;;;;;;;;;;;;;;4986497;28;19972;-76
2022/08/25 12:36:16;;;;;;;;;;;;;;;;;;4985764;28;20017;-76
2022/08/25 12:38:43;;;;;;;;;;;;;;;;;;4983816;28;19934;-76
2022/08/25 12:41:10;;;;;;;;;;;;;;;;;;4985511;28;19930;-76
2022/08/25 12:43:37;;;;;;;;;;;;;;;;;;4986787;28;19948;-73
2022/08/25 12:46:04;;;;;;;;;;;;;;;;;;4986296;28;20388;-74
2022/08/25 12:48:33;;;;;;;;;;;;;;;;;;4983468;28;19937;-74
2022/08/25 12:51:00;;;;;;;;;;;;;;;;;;4984367;28;20062;-75
2022/08/25 12:53:27;;;;;;;;;;;;;;;;;;4984205;28;20025;-73
2022/08/25 12:55:54;;;;;;;;;;;;;;;;;;4982092;28;19926;-74
2022/08/25 12:58:21;;;;;;;;;;;;;;;;;;4985815;28;19926;-73
2022/08/25 13:00:48;;;;;;;;;;;;;;;;;;4996867;28;19926;-72
2022/08/25 13:03:15;;;;;;;;;;;;;;;;;;4988810;28;19976;-74
2022/08/25 13:05:42;;;;;;;;;;;;;;;;;;4984137;28;19996;-73
2022/08/25 13:08:09;;;;;;;;;;;;;;;;;;4982354;28;19926;-74
2022/08/25 13:10:37;;;;;;;;;;;;;;;;;;4980787;28;20312;-74
2022/08/25 13:13:04;;;;;;;;;;;;;;;;;;4982875;28;19976;-73
2022/08/25 13:15:31;;;;;;;;;;;;;;;;;;4979832;28;20372;-72
2022/08/25 13:17:58;;;;;;;;;;;;;;;;;;4980463;28;20289;-73
2022/08/25 13:20:25;;;;;;;;;;;;;;;;;;4987776;28;19929;-74
2022/08/25 13:22:52;;;;;;;;;;;;;;;;;;4984739;28;20021;-73
2022/08/25 13:25:19;;;;;;;;;;;;;;;;;;4984391;28;19926;-74
2022/08/25 13:27:46;;;;;;;;;;;;;;;;;;4982356;28;20028;-74
2022/08/25 13:30:13;;;;;;;;;;;;;;;;;;4979656;28;19932;-73
2022/08/25 13:32:40;;;;;;;;;;;;;;;;;;4979249;28;20399;-74
2022/08/25 13:35:07;;;;;;;;;;;;;;;;;;4984492;28;20021;-73
2022/08/25 13:37:33;;;;;;;;;;;;;;;;;;4979844;28;20021;-73
2022/08/25 13:40:00;;;;;;;;;;;;;;;;;;4982032;28;19934;-73
2022/08/25 13:42:27;;;;;;;;;;;;;;;;;;4985002;28;19929;-73
2022/08/25 13:44:54;;;;;;;;;;;;;;;;;;4982396;28;19957;-73
2022/08/25 13:47:21;;;;;;;;;;;;;;;;;;4983222;28;20502;-73
2022/08/25 13:49:48;;;;;;;;;;;;;;;;;;4978183;28;20021;-73
2022/08/25 13:52:15;;;;;;;;;;;;;;;;;;4978769;28;20417;-73
2022/08/25 13:54:42;;;;;;;;;;;;;;;;;;4981885;28;20016;-73
2022/08/25 13:57:10;;;;;;;;;;;;;;;;;;4982954;28;19936;-73
2022/08/25 13:59:37;;;;;;;;;;;;;;;;;;4974697;28;20381;-73
2022/08/25 14:02:04;;;;;;;;;;;;;;;;;;4982519;28;20407;-73
2022/08/25 14:04:31;;;;;;;;;;;;;;;;;;4977658;28;20009;-73
2022/08/25 14:06:58;;;;;;;;;;;;;;;;;;4980689;28;19926;-73
2022/08/25 14:09:25;;;;;;;;;;;;;;;;;;4984082;28;20468;-72
2022/08/25 14:11:52;;;;;;;;;;;;;;;;;;4986681;28;19926;-72
2022/08/25 14:14:20;;;;;;;;;;;;;;;;;;4980732;28;19933;-74
2022/08/25 14:16:47;;;;;;;;;;;;;;;;;;4981222;28;20017;-71
2022/08/25 14:19:14;;;;;;;;;;;;;;;;;;4978815;28;20316;-73
2022/08/25 14:21:41;;;;;;;;;;;;;;;;;;4976074;28;20025;-72
2022/08/25 14:24:08;;;;;;;;;;;;;;;;;;4977724;28;20021;-73
2022/08/25 14:26:35;;;;;;;;;;;;;;;;;;4980308;28;20424;-72
2022/08/25 14:29:05;;;;;;;;;;;;;;;;;;4980941;28;19926;-73
2022/08/25 14:31:32;;;;;;;;;;;;;;;;;;4975149;28;20358;-73
2022/08/25 14:33:59;;;;;;;;;;;;;;;;;;4976135;28;19925;-73
2022/08/25 14:36:26;;;;;;;;;;;;;;;;;;4974944;28;20373;-72
2022/08/25 14:38:54;;;;;;;;;;;;;;;;;;4971186;28;19934;-74
2022/08/25 14:41:25;;;;;;;;;;;;;;;;;;4983464;28;20017;-73
2022/08/25 14:43:52;;;;;;;;;;;;;;;;;;4975800;28;19953;-74
2022/08/25 14:46:20;;;;;;;;;;;;;;;;;;4974988;28;20383;-73
2022/08/25 14:48:47;;;;;;;;;;;;;;;;;;4976987;28;20020;-71
2022/08/25 14:51:14;;;;;;;;;;;;;;;;;;4976215;28;20008;-74
2022/08/25 14:53:41;;;;;;;;;;;;;;;;;;4976049;28;19938;-73
2022/08/25 14:56:08;;;;;;;;;;;;;;;;;;4976953;28;19937;-73
2022/08/25 14:58:36;;;;;;;;;;;;;;;;;;4977505;28;19934;-72
2022/08/25 15:01:04;;;;;;;;;;;;;;;;;;4977037;28;20385;-73
2022/08/25 15:03:31;;;;;;;;;;;;;;;;;;4974482;28;19941;-74
2022/08/25 15:05:58;;;;;;;;;;;;;;;;;;4972932;28;20011;-74
2022/08/25 15:11:10;;;;;;;;;;;;;;;;;;4984837;28;19940;-72
2022/08/25 15:13:37;;;;;;;;;;;;;;;;;;4984246;28;20334;-72
2022/08/25 15:16:04;;;;;;;;;;;;;;;;;;4982694;28;20388;-73
2022/08/25 15:18:32;;;;;;;;;;;;;;;;;;4985201;28;19930;-71
2022/08/25 15:20:59;;;;;;;;;;;;;;;;;;4982331;28;19934;-72
2022/08/25 15:23:26;;;;;;;;;;;;;;;;;;4982639;28;19948;-73
2022/08/25 15:25:53;;;;;;;;;;;;;;;;;;4983916;28;19936;-72
2022/08/25 15:28:20;;;;;;;;;;;;;;;;;;4973579;28;19958;-73
2022/08/25 15:30:47;;;;;;;;;;;;;;;;;;4975857;28;20074;-71
2022/08/25 15:33:14;;;;;;;;;;;;;;;;;;4976176;28;19930;-72
2022/08/25 15:35:41;;;;;;;;;;;;;;;;;;4977468;28;20381;-72
2022/08/25 15:38:08;;;;;;;;;;;;;;;;;;4982835;28;19932;-72
2022/08/25 15:40:36;;;;;;;;;;;;;;;;;;4987787;28;19984;-73
2022/08/25 15:43:03;;;;;;;;;;;;;;;;;;4982881;28;19930;-73
2022/08/25 15:45:30;;;;;;;;;;;;;;;;;;4981148;28;19930;-72
2022/08/25 15:47:57;;;;;;;;;;;;;;;;;;4984167;28;19930;-72
2022/08/25 15:50:25;;;;;;;;;;;;;;;;;;4978913;28;20131;-72
2022/08/25 15:52:52;;;;;;;;;;;;;;;;;;4985857;28;19926;-72
2022/08/25 15:55:20;;;;;;;;;;;;;;;;;;4979638;28;20024;-72
2022/08/25 15:57:47;;;;;;;;;;;;;;;;;;4982629;28;19934;-72
2022/08/25 16:00:14;;;;;;;;;;;;;;;;;;4982269;28;19926;-71
2022/08/25 16:02:42;;;;;;;;;;;;;;;;;;4981739;28;19926;-71
2022/08/25 16:05:09;;;;;;;;;;;;;;;;;;4979441;28;19932;-72
2022/08/25 16:07:36;;;;;;;;;;;;;;;;;;4980132;28;19957;-72
2022/08/25 16:10:03;;;;;;;;;;;;;;;;;;4983762;28;20016;-72
2022/08/25 16:12:30;;;;;;;;;;;;;;;;;;4987413;28;20409;-72
2022/08/25 16:14:57;;;;;;;;;;;;;;;;;;4982883;28;19932;-72
2022/08/25 16:17:24;;;;;;;;;;;;;;;;;;4983633;28;20268;-71
2022/08/25 16:19:51;;;;;;;;;;;;;;;;;;4984892;28;20020;-70
2022/08/25 16:22:18;;;;;;;;;;;;;;;;;;4986747;28;19941;-70
2022/08/25 16:24:45;;;;;;;;;;;;;;;;;;4981932;28;20042;-70
2022/08/25 16:27:13;;;;;;;;;;;;;;;;;;4983221;28;19930;-70
2022/08/25 16:29:40;;;;;;;;;;;;;;;;;;4985197;28;19933;-71
2022/08/25 16:32:07;;;;;;;;;;;;;;;;;;4986135;28;19929;-71